createdAt,value
2022-11-21T00:02:43.694Z,96480.78
2022-11-21T00:07:38.550Z,96469.97
2022-11-21T00:12:48.927Z,96460.78
2022-11-21T00:17:43.583Z,96459.13
2022-11-21T00:22:54.146Z,96456.16
2022-11-21T00:28:08.567Z,96454.84
2022-11-21T00:33:13.012Z,96460.44
2022-11-21T00:38:23.717Z,96441.09
2022-11-21T00:43:19.162Z,96444.97
2022-11-21T00:48:39.645Z,96456.81
2022-11-21T00:53:51.426Z,96448.03
2022-11-21T00:58:52.323Z,96439.31
2022-11-21T01:03:48.667Z,96441.09
2022-11-21T01:08:50.979Z,96449.72
2022-11-21T01:13:47.545Z,96445.47
2022-11-21T01:18:44.263Z,96452.94
2022-11-21T01:23:38.985Z,96445.47
2022-11-21T01:29:01.689Z,96440.72
2022-11-21T01:34:22.632Z,96430.69
2022-11-21T01:39:25.341Z,96424.47
2022-11-21T01:45:03.321Z,96408.47
2022-11-21T01:49:56.758Z,96395.75
2022-11-21T01:54:58.561Z,96356.56
2022-11-21T02:00:21.568Z,96343.81
2022-11-21T02:05:22.157Z,96335.22
2022-11-21T02:10:21.103Z,96335.28
2022-11-21T02:15:15.978Z,96334.97
2022-11-21T02:20:48.767Z,96333.81
2022-11-21T02:25:47.113Z,96346.91
2022-11-21T02:31:20.527Z,96343.47
2022-11-21T02:36:47.567Z,96333.31
2022-11-21T02:41:52.757Z,96326.09
2022-11-21T02:47:01.852Z,96308.94
2022-11-21T02:51:55.191Z,96292.53
2022-11-21T02:56:57.664Z,96269.59
2022-11-21T03:01:51.231Z,96285.22
2022-11-21T03:06:51.610Z,96264.81
2022-11-21T03:11:44.908Z,96267.84
2022-11-21T03:16:39.937Z,96257.19
2022-11-21T03:21:33.301Z,96247.97
2022-11-21T03:26:26.763Z,96241.81
2022-11-21T03:31:20.179Z,96233.38
2022-11-21T03:36:14.832Z,96246.16
2022-11-21T03:41:53.381Z,96238.00
2022-11-21T03:46:48.342Z,96243.91
2022-11-21T03:51:43.836Z,96237.34
2022-11-21T03:56:44.399Z,96245.56
2022-11-21T04:01:41.305Z,96236.00
2022-11-21T04:06:40.934Z,96229.81
2022-11-21T04:11:35.936Z,96213.91
2022-11-21T04:16:33.401Z,96223.91
2022-11-21T04:27:36.126Z,96208.19
2022-11-21T04:32:50.811Z,96212.56
2022-11-21T04:37:58.048Z,96186.75
2022-11-21T04:43:41.287Z,96209.72
2022-11-21T04:54:13.013Z,96219.81
2022-11-21T04:59:12.876Z,96224.44
2022-11-21T05:04:21.822Z,96229.00
2022-11-21T05:09:15.180Z,96227.84
2022-11-21T05:14:32.079Z,96223.50
2022-11-21T05:19:25.591Z,96235.75
2022-11-21T05:24:48.252Z,96234.97
2022-11-21T05:30:11.991Z,96236.38
2022-11-21T05:35:12.124Z,96246.91
2022-11-21T05:40:50.854Z,96251.75
2022-11-21T05:45:45.507Z,96256.25
2022-11-21T05:50:38.826Z,96253.47
2022-11-21T05:55:35.268Z,96258.94
2022-11-21T06:00:29.613Z,96261.09
2022-11-21T06:05:24.695Z,96265.19
2022-11-21T06:10:18.993Z,96265.59
2022-11-21T06:15:12.671Z,96263.00
2022-11-21T06:20:57.966Z,96257.75
2022-11-21T06:26:43.623Z,96257.44
2022-11-21T06:31:38.139Z,96254.53
2022-11-21T06:36:32.826Z,96250.63
2022-11-21T06:41:36.181Z,96256.56
2022-11-21T06:46:30.290Z,96263.47
2022-11-21T06:51:36.620Z,96265.78
2022-11-21T06:56:33.444Z,96266.59
2022-11-21T07:01:27.316Z,96267.53
2022-11-21T07:06:24.492Z,96274.09
2022-11-21T07:11:26.035Z,96287.22
2022-11-21T07:16:33.976Z,96298.94
2022-11-21T07:21:36.572Z,96287.09
2022-11-21T07:26:33.833Z,96287.19
2022-11-21T07:31:28.569Z,96291.84
2022-11-21T07:36:21.898Z,96283.66
2022-11-21T07:41:15.470Z,96281.47
2022-11-21T07:46:17.909Z,96288.13
2022-11-21T07:51:12.702Z,96274.00
2022-11-21T07:56:09.630Z,96282.19
2022-11-21T08:01:06.347Z,96268.56
2022-11-21T08:06:15.839Z,96262.53
2022-11-21T08:11:10.592Z,96270.97
2022-11-21T08:16:05.393Z,96260.84
2022-11-21T08:21:01.396Z,96254.41
2022-11-21T08:25:57.575Z,96235.88
2022-11-21T08:30:52.263Z,96235.25
2022-11-21T08:35:45.660Z,96240.16
2022-11-21T08:40:42.033Z,96234.72
2022-11-21T08:45:37.271Z,96223.06
2022-11-21T08:50:32.668Z,96227.44
2022-11-21T08:55:26.075Z,96222.34
2022-11-21T09:00:20.260Z,96204.78
2022-11-21T09:05:13.562Z,96197.59
2022-11-21T09:10:10.461Z,96198.22
2022-11-21T09:15:21.216Z,96182.00
2022-11-21T09:20:15.361Z,96182.44
2022-11-21T09:25:13.500Z,96189.94
2022-11-21T09:30:20.470Z,96205.41
2022-11-21T09:35:13.995Z,96200.56
2022-11-21T09:40:14.708Z,96198.69
2022-11-21T09:45:17.037Z,96196.97
2022-11-21T09:50:33.562Z,96203.91
2022-11-21T09:55:43.319Z,96194.63
2022-11-21T10:00:43.368Z,96190.25
2022-11-21T10:06:28.842Z,96185.06
2022-11-21T10:12:14.045Z,96170.38
2022-11-21T10:17:27.910Z,96140.97
2022-11-21T10:22:43.107Z,96119.25
2022-11-21T10:27:47.853Z,96102.06
2022-11-21T10:32:45.801Z,96100.53
2022-11-21T10:37:43.276Z,96098.88
2022-11-21T10:42:47.070Z,96091.97
2022-11-21T10:47:40.507Z,96085.69
2022-11-21T10:52:49.299Z,96074.25
2022-11-21T10:57:47.539Z,96069.16
2022-11-21T11:02:42.205Z,96047.25
2022-11-21T11:07:35.568Z,96035.97
2022-11-21T11:12:45.760Z,96019.63
2022-11-21T11:17:40.655Z,96008.84
2022-11-21T11:22:34.585Z,96000.91
2022-11-21T11:27:31.519Z,95997.56
2022-11-21T11:32:25.410Z,95985.69
2022-11-21T11:37:29.914Z,95967.50
2022-11-21T11:43:24.452Z,95951.78
2022-11-21T11:48:20.102Z,95949.41
2022-11-21T11:53:21.112Z,95939.03
2022-11-21T11:58:26.196Z,95924.16
2022-11-21T12:03:26.156Z,95915.13
2022-11-21T12:08:41.524Z,95905.03
2022-11-21T12:13:38.452Z,95900.41
2022-11-21T12:18:41.070Z,95885.06
2022-11-21T12:23:44.955Z,95876.53
2022-11-21T12:29:07.391Z,95855.56
2022-11-21T12:34:21.148Z,95846.75
2022-11-21T12:39:57.358Z,95831.56
2022-11-21T12:45:14.171Z,95798.28
2022-11-21T12:50:43.085Z,95785.25
2022-11-21T12:57:28.901Z,95778.53
2022-11-21T13:22:10.158Z,95717.56
2022-11-21T14:05:30.790Z,95636.06
2022-11-21T14:10:34.636Z,95627.50
2022-11-21T14:15:40.188Z,95608.66
2022-11-21T14:47:01.841Z,95542.78
2022-11-21T14:52:04.571Z,95529.03
2022-11-21T14:57:09.198Z,95518.75
2022-11-21T15:02:08.867Z,95508.34
2022-11-21T15:07:31.336Z,95485.44
2022-11-21T15:12:45.870Z,95479.47
2022-11-21T15:18:03.461Z,95463.72
2022-11-21T15:23:02.295Z,95452.03
2022-11-21T15:28:18.414Z,95449.56
2022-11-21T15:33:36.647Z,95433.50
2022-11-21T15:38:53.886Z,95419.66
2022-11-21T15:49:41.869Z,95417.59
2022-11-21T16:13:02.058Z,95377.22
2022-11-21T16:17:55.532Z,95357.16
2022-11-21T16:22:50.536Z,95341.78
2022-11-21T16:27:47.342Z,95340.00
2022-11-21T16:32:42.143Z,95333.44
2022-11-21T16:37:35.769Z,95309.16
2022-11-21T16:48:58.306Z,95279.22
2022-11-21T16:55:08.122Z,95270.97
2022-11-21T17:00:07.004Z,95272.09
2022-11-21T17:12:02.276Z,95255.06
2022-11-21T17:17:37.781Z,95251.38
2022-11-21T17:23:24.844Z,95243.13
2022-11-21T17:28:18.203Z,95220.91
2022-11-21T17:33:11.596Z,95216.94
2022-11-21T17:38:06.313Z,95202.66
2022-11-21T17:43:00.368Z,95175.53
2022-11-21T17:47:54.154Z,95147.81
2022-11-21T17:52:47.497Z,95175.66
2022-11-21T17:57:44.745Z,95188.66
2022-11-21T18:02:38.425Z,95171.53
2022-11-21T18:07:54.797Z,95163.97
2022-11-21T18:13:57.218Z,95163.56
2022-11-21T18:19:20.527Z,95149.75
2022-11-21T18:24:50.462Z,95153.31
2022-11-21T18:30:34.761Z,95136.16
2022-11-21T18:35:29.606Z,95122.31
2022-11-21T18:41:47.301Z,95140.81
2022-11-21T18:47:37.424Z,95164.00
2022-11-21T18:53:06.886Z,95191.69
2022-11-21T19:04:52.069Z,95197.69
2022-11-21T19:10:42.041Z,95195.22
2022-11-21T20:04:01.887Z,95170.00
2022-11-21T20:15:20.629Z,95173.97
2022-11-21T20:20:33.990Z,95173.16
2022-11-21T20:25:51.352Z,95180.81
2022-11-21T20:30:53.937Z,95189.88
2022-11-21T20:35:52.290Z,95189.47
2022-11-21T20:40:56.039Z,95208.53
2022-11-21T20:46:13.093Z,95218.84
2022-11-21T20:57:14.490Z,95218.63
2022-11-21T21:02:34.682Z,95205.06
2022-11-21T21:07:43.175Z,95194.81
2022-11-21T21:13:01.507Z,95182.75
2022-11-21T21:18:04.277Z,95182.47
2022-11-21T21:23:28.197Z,95179.88
2022-11-21T21:29:27.202Z,95192.91
2022-11-21T21:35:05.142Z,95189.38
2022-11-21T21:40:58.715Z,95187.84
2022-11-21T21:46:46.097Z,95185.25
2022-11-21T21:52:03.297Z,95181.53
2022-11-21T21:57:21.477Z,95172.63
2022-11-21T22:08:15.292Z,95189.34
2022-11-21T22:13:14.242Z,95172.88
2022-11-21T22:18:14.648Z,95170.03
2022-11-21T22:23:46.509Z,95187.69
2022-11-21T22:30:16.300Z,95193.19
2022-11-21T22:35:36.537Z,95203.03
2022-11-21T22:41:39.556Z,95198.53
2022-11-21T22:53:37.068Z,95201.84
2022-11-21T22:59:39.330Z,95194.69
2022-11-21T23:04:53.524Z,95194.69
2022-11-21T23:16:36.627Z,95181.25
2022-11-21T23:22:00.918Z,95170.28
2022-11-21T23:27:15.230Z,95166.84
2022-11-21T23:32:33.472Z,95157.94
2022-11-21T23:37:31.043Z,95155.34
2022-11-21T23:42:37.350Z,95142.47
2022-11-21T23:48:27.010Z,95148.38
2022-11-21T23:53:41.104Z,95153.84
2022-11-21T23:58:47.306Z,95148.91
